Time;durP1;ratioP1;P1;durP2;ratioP2;P2;SDS_P1;SDS_P2;PMS_P1;PMS_P2;Temp;Humidity;BMP_temperature;BMP_pressure;BME280_temperature;BME280_humidity;BME280_pressure;Samples;Min_cycle;Max_cycle;Signal;HPM_P1;HPM_P2
2021/04/20 00:02:20;;;;;;;31.33;20.60;;;;;;;6.40;68.29;100309.19;1747407;81;25618;-71
2021/04/20 00:04:47;;;;;;;35.48;21.40;;;;;;;6.33;68.61;100307.64;1747605;82;25719;-71
2021/04/20 00:07:14;;;;;;;33.30;22.45;;;;;;;6.27;68.48;100307.41;1747633;82;26225;-79
2021/04/20 00:09:43;;;;;;;35.98;22.82;;;;;;;6.20;68.73;100298.04;1728781;82;25713;-84
2021/04/20 00:12:10;;;;;;;33.40;22.30;;;;;;;6.15;68.96;100297.55;1747681;82;25624;-84
2021/04/20 00:14:37;;;;;;;33.58;22.55;;;;;;;6.09;69.16;100300.80;1728667;82;25654;-78
2021/04/20 00:17:06;;;;;;;39.33;22.67;;;;;;;6.07;69.22;100298.93;1747836;82;25990;-84
2021/04/20 00:19:33;;;;;;;36.17;20.48;;;;;;;6.07;69.65;100295.45;1747945;82;25701;-84
2021/04/20 00:21:59;;;;;;;34.50;21.75;;;;;;;6.05;69.56;100301.09;1747851;81;25709;-84
2021/04/20 00:24:26;;;;;;;37.48;22.30;;;;;;;6.03;69.54;100299.23;1748965;82;25547;-82
2021/04/20 00:26:52;;;;;;;36.58;22.30;;;;;;;6.03;69.65;100299.76;1749419;82;25558;-84
2021/04/20 00:29:19;;;;;;;30.85;21.68;;;;;;;6.01;69.61;100301.92;1748746;82;26655;-82
2021/04/20 06:01:22;;;;;;;16.35;10.85;;;;;;;9.10;73.19;100247.97;1735867;79;26776;-52
2021/04/20 06:03:50;;;;;;;21.87;11.15;;;;;;;9.46;73.00;100245.09;1721260;80;25607;-51
2021/04/20 06:06:20;;;;;;;17.50;10.65;;;;;;;9.71;72.04;100239.14;1679802;84;25574;-52
2021/04/20 06:08:53;;;;;;;16.50;10.43;;;;;;;9.98;71.27;100236.12;1699156;84;25590;-52
2021/04/20 06:11:23;;;;;;;14.28;8.65;;;;;;;10.27;70.98;100245.71;1724902;81;26305;-51
2021/04/20 06:13:54;;;;;;;13.03;8.38;;;;;;;10.58;70.13;100239.00;1724304;83;34728;-52
2021/04/20 06:16:21;;;;;;;16.15;9.18;;;;;;;10.87;69.21;100244.47;1724166;83;25613;-51
2021/04/20 06:18:48;;;;;;;12.03;7.50;;;;;;;11.17;68.50;100244.76;1724276;83;25638;-52
2021/04/20 06:21:17;;;;;;;11.28;6.97;;;;;;;11.44;67.89;100236.13;1724241;83;25599;-51
2021/04/20 06:23:45;;;;;;;14.77;9.87;;;;;;;11.76;66.89;100234.34;1724532;83;25714;-52
2021/04/20 06:26:14;;;;;;;10.78;7.92;;;;;;;12.05;66.33;100236.20;1727178;81;25540;-50
2021/04/20 06:28:42;;;;;;;12.63;7.45;;;;;;;12.35;65.93;100224.92;1725650;82;25555;-49
2021/04/20 06:31:10;;;;;;;38.73;20.77;;;;;;;12.67;65.15;100223.55;1725334;82;26223;-52
2021/04/20 06:33:39;;;;;;;10.20;7.37;;;;;;;12.98;64.24;100222.47;1724378;83;25918;-53
2021/04/20 06:36:08;;;;;;;8.40;6.53;;;;;;;13.31;63.73;100232.67;1724231;83;25776;-50
2021/04/20 06:38:38;;;;;;;10.50;6.80;;;;;;;13.58;62.68;100229.27;1724256;83;33212;-52
2021/04/20 06:41:09;;;;;;;11.65;6.47;;;;;;;13.86;61.73;100223.30;1724271;82;25690;-51
2021/04/20 06:44:01;;;;;;;7.65;6.05;;;;;;;14.18;61.16;100225.27;1724194;83;25532;-67
2021/04/20 06:46:43;;;;;;;7.58;4.97;;;;;;;14.53;60.50;100226.25;1724298;83;26276;-67
2021/04/20 06:49:23;;;;;;;8.28;5.03;;;;;;;14.93;59.95;100231.12;1724459;82;25873;-67
2021/04/20 06:51:54;;;;;;;10.45;4.55;;;;;;;15.29;58.64;100224.64;1728370;82;25583;-67
2021/04/20 06:54:39;;;;;;;6.95;4.87;;;;;;;15.61;57.91;100224.80;1724603;82;26252;-67
2021/04/20 06:57:19;;;;;;;6.58;3.90;;;;;;;15.94;56.70;100229.30;1724629;82;25580;-67
2021/04/20 07:00:12;;;;;;;4.35;3.92;;;;;;;16.25;55.32;100223.91;1724130;83;25520;-68
2021/04/20 07:03:02;;;;;;;5.37;4.17;;;;;;;16.54;54.03;100229.34;1724261;83;26168;-67
2021/04/20 07:06:03;;;;;;;3.72;3.33;;;;;;;16.85;53.36;100222.33;1723727;83;25612;-67
2021/04/20 07:08:51;;;;;;;4.05;3.65;;;;;;;17.17;52.53;100219.78;1724809;82;25865;-67
2021/04/20 07:11:17;;;;;;;5.30;4.15;;;;;;;17.49;51.21;100218.94;1723688;83;26152;-67
2021/04/20 07:13:50;;;;;;;4.67;3.47;;;;;;;17.73;50.22;100221.98;1703785;82;25597;-67
2021/04/20 07:16:34;;;;;;;4.65;3.40;;;;;;;17.94;49.51;100220.86;1724127;81;25793;-67
2021/04/20 07:19:12;;;;;;;8.28;3.85;;;;;;;18.18;48.89;100216.43;1765203;81;25565;-68
2021/04/20 07:21:57;;;;;;;7.45;3.50;;;;;;;18.54;48.79;100220.40;1699247;83;25657;-66
2021/04/20 07:24:53;;;;;;;7.65;4.17;;;;;;;18.87;47.59;100214.34;1760693;81;25717;-66
2021/04/20 07:27:55;;;;;;;26.68;16.12;;;;;;;19.08;46.50;100222.69;1752596;81;25545;-66
2021/04/20 07:30:51;;;;;;;9.65;6.08;;;;;;;19.21;45.48;100226.22;1754171;80;25909;-52
2021/04/20 07:33:52;;;;;;;5.92;4.33;;;;;;;19.45;44.96;100226.16;1629004;86;26709;-53
2021/04/20 07:36:57;;;;;;;7.42;3.98;;;;;;;19.67;43.89;100228.62;1616456;88;25651;-49
2021/04/20 07:39:26;;;;;;;4.08;3.65;;;;;;;19.92;43.44;100221.51;1620394;86;25680;-53
2021/04/20 07:42:16;;;;;;;7.45;4.37;;;;;;;20.05;38.85;100215.77;1645532;86;25608;-53
2021/04/20 07:45:09;;;;;;;7.30;4.22;;;;;;;20.23;42.60;100207.14;1646353;87;25963;-50
2021/04/20 07:47:43;;;;;;;4.62;3.83;;;;;;;20.44;41.45;100214.79;1646481;87;25762;-54
2021/04/20 07:50:17;;;;;;;4.53;3.90;;;;;;;20.59;41.17;100201.20;1646576;87;25759;-53
2021/04/20 07:53:00;;;;;;;4.62;4.22;;;;;;;20.97;40.87;100210.94;1888413;76;25453;-52
2021/04/20 07:55:32;;;;;;;6.15;4.08;;;;;;;21.16;40.63;100200.86;1856617;77;25656;-53
2021/04/20 07:58:12;;;;;;;5.12;4.03;;;;;;;21.39;40.04;100204.14;1857905;77;28071;-51
2021/04/20 08:00:50;;;;;;;5.55;4.92;;;;;;;21.64;39.26;100201.55;1858198;77;25675;-52
2021/04/20 08:03:29;;;;;;;5.42;4.20;;;;;;;21.76;38.48;100199.61;1858434;77;25590;-53
2021/04/20 08:06:13;;;;;;;4.58;3.98;;;;;;;21.97;38.18;100198.91;1855901;77;25733;-56
2021/04/20 08:08:54;;;;;;;6.60;4.58;;;;;;;22.22;38.91;100196.23;1859662;76;25507;-56
2021/04/20 08:11:34;;;;;;;6.03;4.95;;;;;;;22.33;38.59;100198.42;1879794;76;27963;-56
2021/04/20 08:14:27;;;;;;;6.17;4.72;;;;;;;22.37;38.13;100199.23;1879707;76;25738;-55
2021/04/20 08:17:06;;;;;;;5.70;4.12;;;;;;;22.33;37.22;100194.89;1879884;76;25598;-54
2021/04/20 08:19:44;;;;;;;5.15;4.62;;;;;;;22.16;37.08;100193.05;1879825;76;25594;-55
2021/04/20 08:22:14;;;;;;;7.25;5.10;;;;;;;22.03;37.36;100184.95;1848283;76;25554;-55
2021/04/20 08:25:11;;;;;;;5.65;4.65;;;;;;;21.87;37.04;100185.30;1879881;76;26685;-55
2021/04/20 08:27:57;;;;;;;6.90;4.97;;;;;;;21.74;37.37;100186.27;1877363;76;25507;-56
2021/04/20 08:31:11;;;;;;;5.72;4.78;;;;;;;21.73;37.03;100179.77;1879813;76;25510;-56
2021/04/20 08:33:43;;;;;;;5.28;4.40;;;;;;;21.65;36.31;100178.94;1805277;79;25559;-56
2021/04/20 08:36:34;;;;;;;7.05;5.37;;;;;;;21.73;35.96;100178.39;1821059;78;25658;-55
2021/04/20 08:39:24;;;;;;;9.73;5.67;;;;;;;21.82;36.42;100183.70;1805344;79;25763;-54
2021/04/20 08:42:38;;;;;;;6.25;5.40;;;;;;;22.10;35.91;100174.53;1820129;78;25527;-73
2021/04/20 08:45:50;;;;;;;8.28;5.53;;;;;;;22.15;35.93;100181.85;1804808;79;25626;-73
2021/04/20 08:48:35;;;;;;;9.23;5.75;;;;;;;22.29;35.76;100180.33;1820974;78;25607;-73
2021/04/20 08:51:15;;;;;;;8.53;6.30;;;;;;;22.33;34.78;100173.63;1821357;78;25599;-72
2021/04/20 08:54:12;;;;;;;7.45;6.65;;;;;;;22.43;34.79;100159.66;1824214;78;25773;-73
2021/04/20 08:56:47;;;;;;;13.50;7.37;;;;;;;22.49;35.04;100167.75;1811142;79;25642;-73
2021/04/20 08:59:57;;;;;;;22.58;9.85;;;;;;;22.61;35.05;100170.70;1823678;78;26101;-76
2021/04/20 09:02:38;;;;;;;15.20;7.62;;;;;;;22.77;34.69;100164.78;1810629;79;25568;-75
2021/04/20 09:05:25;;;;;;;9.63;6.37;;;;;;;22.93;35.01;100159.65;1822651;78;26174;-75
2021/04/20 09:07:56;;;;;;;13.95;7.87;;;;;;;23.06;34.28;100165.55;1822822;78;26206;-79
2021/04/20 09:10:50;;;;;;;13.62;8.30;;;;;;;23.24;34.18;100160.00;1783575;79;25579;-79
2021/04/20 09:13:23;;;;;;;14.83;8.25;;;;;;;23.43;33.84;100154.61;1843071;77;25590;-78
2021/04/20 09:15:56;;;;;;;11.63;7.85;;;;;;;23.53;33.75;100163.23;1811009;79;25563;-80
2021/04/20 09:18:31;;;;;;;10.48;7.03;;;;;;;23.61;32.66;100155.13;1823874;78;26238;-77
2021/04/20 09:21:19;;;;;;;7.25;5.85;;;;;;;23.63;33.15;100154.12;1822986;78;25876;-79
2021/04/20 09:24:16;;;;;;;7.20;6.35;;;;;;;23.85;32.82;100149.30;1809688;79;25511;-75
2021/04/20 09:27:09;;;;;;;10.10;7.35;;;;;;;23.96;31.70;100145.12;1818863;78;25604;-73
2021/04/20 09:29:59;;;;;;;9.63;5.33;;;;;;;23.77;32.14;100150.50;1759864;81;25830;-73
2021/04/20 09:32:36;;;;;;;10.13;6.40;;;;;;;23.97;32.71;100143.91;1759677;81;25577;-74
2021/04/20 09:35:06;;;;;;;10.50;6.90;;;;;;;24.17;31.64;100144.95;1759892;81;25805;-75
2021/04/20 09:37:37;;;;;;;5.97;5.35;;;;;;;24.12;30.91;100141.24;1759817;81;25689;-73
2021/04/20 09:40:07;;;;;;;8.65;5.50;;;;;;;24.11;32.02;100141.64;1759636;81;25623;-70
2021/04/20 09:42:36;;;;;;;8.60;5.28;;;;;;;24.47;32.41;100142.75;1734184;81;25662;-71
2021/04/20 09:45:15;;;;;;;7.78;5.80;;;;;;;24.81;31.96;100130.45;1762147;80;25553;-71
2021/04/20 09:48:08;;;;;;;8.55;5.90;;;;;;;25.04;31.42;100129.80;1776346;80;25911;-74
2021/04/20 09:51:10;;;;;;;10.95;6.42;;;;;;;25.37;30.77;100137.17;1816216;77;25468;-73
2021/04/20 09:54:17;;;;;;;9.63;6.03;;;;;;;25.41;30.78;100126.06;1786951;80;25611;-73
2021/04/20 09:57:00;;;;;;;9.15;6.03;;;;;;;25.46;30.87;100132.52;1786987;79;25712;-69
2021/04/20 09:59:49;;;;;;;7.10;6.40;;;;;;;25.54;31.11;100129.84;1788475;80;25544;-66
2021/04/20 10:03:11;;;;;;;7.33;6.15;;;;;;;25.43;31.22;100111.97;1788718;80;32391;-62
2021/04/20 10:05:59;;;;;;;7.60;6.65;;;;;;;25.15;31.01;100113.09;1788732;80;25600;-62
2021/04/20 10:09:02;;;;;;;8.88;6.90;;;;;;;24.69;31.04;100115.73;1788595;80;25553;-79
2021/04/20 10:11:52;;;;;;;7.30;5.97;;;;;;;24.52;31.35;100118.24;1788736;80;25719;-64
2021/04/20 10:14:35;;;;;;;7.37;6.22;;;;;;;24.54;31.13;100109.54;1787998;80;25620;-65
2021/04/20 10:17:28;;;;;;;8.35;5.70;;;;;;;24.50;30.77;100110.96;1785838;80;25557;-69
2021/04/20 10:20:20;;;;;;;6.62;5.78;;;;;;;24.49;31.31;100101.69;1789162;78;25660;-62
2021/04/20 10:23:01;;;;;;;7.20;5.75;;;;;;;24.65;31.37;100096.41;1814086;78;25663;-62
2021/04/20 10:25:50;;;;;;;11.22;6.12;;;;;;;24.89;31.70;100098.76;1769704;80;26183;-74
2021/04/20 10:28:30;;;;;;;7.95;5.40;;;;;;;25.02;31.81;100092.08;1770936;80;25680;-76
2021/04/20 10:31:02;;;;;;;7.25;5.30;;;;;;;25.28;31.22;100088.44;1770115;80;26341;-68
2021/04/20 10:33:30;;;;;;;7.20;5.97;;;;;;;25.52;30.64;100094.84;1774018;80;25593;-67
2021/04/20 10:36:02;;;;;;;8.25;5.65;;;;;;;25.59;29.71;100085.66;1772053;80;25630;-68
2021/04/20 10:38:34;;;;;;;6.22;5.62;;;;;;;25.68;29.87;100093.64;1766757;80;26296;-67
2021/04/20 10:41:06;;;;;;;6.95;5.30;;;;;;;25.81;29.43;100083.37;1773537;80;25595;-65
2021/04/20 10:43:33;;;;;;;5.92;5.40;;;;;;;25.90;29.56;100073.33;1761572;80;25584;-66
2021/04/20 10:46:11;;;;;;;5.58;5.08;;;;;;;25.91;28.01;100080.45;1778354;78;25729;-67
2021/04/20 10:48:39;;;;;;;6.23;5.40;;;;;;;25.75;28.49;100073.38;1775659;78;25655;-67
2021/04/20 10:51:09;;;;;;;7.80;6.37;;;;;;;25.58;29.20;100073.81;1776764;78;25698;-66
2021/04/20 10:53:38;;;;;;;7.28;6.28;;;;;;;25.68;28.66;100068.72;1782797;80;25617;-57
2021/04/20 10:56:14;;;;;;;6.83;5.90;;;;;;;25.70;29.42;100070.46;1745785;80;26056;-57
2021/04/20 10:58:48;;;;;;;8.68;5.60;;;;;;;25.77;29.18;100064.03;1772751;80;25353;-57
2021/04/20 11:01:23;;;;;;;10.13;5.92;;;;;;;25.70;29.07;100063.53;1774162;78;25850;-56
2021/04/20 11:03:54;;;;;;;7.10;6.20;;;;;;;25.50;29.00;100065.41;1773387;80;25756;-56
2021/04/20 11:06:39;;;;;;;;;;;;;;;25.53;28.03;100059.05;1712574;83;25729;-57
2021/04/20 11:09:07;;;;;;;6.45;5.80;;;;;;;25.22;27.80;100059.04;1708917;83;25788;-57
2021/04/20 11:11:33;;;;;;;7.65;6.00;;;;;;;25.05;28.12;100051.75;1711583;83;25625;-56
2021/04/20 11:14:02;;;;;;;7.05;5.92;;;;;;;24.76;27.78;100041.02;1732153;82;25611;-55
2021/04/20 11:16:43;;;;;;;6.58;5.97;;;;;;;24.29;27.48;100051.11;1715185;83;26737;-56
2021/04/20 11:19:17;;;;;;;6.83;5.97;;;;;;;23.78;28.05;100053.45;1701000;83;25777;-57
2021/04/20 11:21:45;;;;;;;6.97;5.90;;;;;;;23.41;29.04;100049.36;1697820;82;25775;-54
2021/04/20 11:24:18;;;;;;;8.23;5.50;;;;;;;23.12;29.52;100045.92;1680545;83;25612;-56
2021/04/20 11:26:58;;;;;;;7.17;6.03;;;;;;;22.84;30.02;100039.31;1699634;83;25657;-55
2021/04/20 11:29:30;;;;;;;8.58;6.33;;;;;;;22.50;29.76;100034.27;1713323;81;25735;-54
2021/04/20 11:31:58;;;;;;;8.93;5.67;;;;;;;22.15;29.94;100029.55;1701414;83;25618;-55
2021/04/20 11:34:31;;;;;;;6.40;5.80;;;;;;;21.89;30.54;100025.23;1684539;83;26289;-54
2021/04/20 11:37:09;;;;;;;6.90;5.75;;;;;;;21.69;30.20;100027.57;1685415;83;25610;-53
2021/04/20 11:39:43;;;;;;;6.42;5.80;;;;;;;21.41;30.59;100027.69;1714180;83;26026;-53
2021/04/20 11:42:18;;;;;;;9.03;5.87;;;;;;;21.19;31.05;100020.73;1714033;83;25816;-56
2021/04/20 11:44:51;;;;;;;9.10;6.17;;;;;;;20.99;30.51;100018.11;1706640;82;25602;-57
2021/04/20 11:47:19;;;;;;;8.60;6.08;;;;;;;20.75;30.94;100012.11;1712576;82;26280;-57
2021/04/20 11:49:54;;;;;;;6.95;5.65;;;;;;;20.49;31.27;100019.39;1705818;82;25628;-56
2021/04/20 11:52:26;;;;;;;8.43;6.37;;;;;;;20.24;31.19;100015.70;1706895;84;25608;-57
2021/04/20 11:55:08;;;;;;;8.18;5.90;;;;;;;19.92;31.75;100015.66;1707721;82;25788;-56
2021/04/20 11:57:38;;;;;;;11.00;5.97;;;;;;;19.59;31.98;100012.38;1729992;81;25908;-49
2021/04/20 12:00:09;;;;;;;8.30;5.62;;;;;;;19.33;32.73;100013.29;1700340;84;25790;-46
2021/04/20 12:02:38;;;;;;;8.65;5.90;;;;;;;19.22;33.29;100011.22;1700004;84;25236;-45
2021/04/20 12:05:09;;;;;;;9.70;5.70;;;;;;;19.09;33.72;100015.95;1701067;84;25465;-46
2021/04/20 12:07:39;;;;;;;6.95;5.92;;;;;;;19.01;34.42;100016.44;1700977;84;26571;-46
2021/04/20 12:10:08;;;;;;;10.20;6.25;;;;;;;18.88;34.77;100014.50;1722936;83;25555;-47
2021/04/20 12:12:36;;;;;;;7.67;6.80;;;;;;;18.78;35.49;100024.16;1671715;84;25660;-45
2021/04/20 12:15:07;;;;;;;6.65;5.95;;;;;;;18.66;36.38;100021.05;1696911;84;25777;-46
2021/04/20 12:17:40;;;;;;;8.80;6.10;;;;;;;18.46;36.73;100017.64;1697435;84;25591;-48
2021/04/20 12:20:11;;;;;;;9.23;5.72;;;;;;;18.19;36.68;100033.26;1697622;84;25987;-46
2021/04/20 12:22:39;;;;;;;7.78;5.65;;;;;;;17.89;36.97;100022.20;1697346;84;25614;-49
2021/04/20 12:25:09;;;;;;;7.53;6.33;;;;;;;17.71;37.15;100018.56;1723541;83;26229;-49
2021/04/20 12:27:36;;;;;;;6.30;4.55;;;;;;;17.61;37.49;100020.53;1723670;83;25579;-46
2021/04/20 12:30:07;;;;;;;4.40;3.83;;;;;;;17.49;36.04;100033.00;1697646;84;25705;-47
2021/04/20 12:32:33;;;;;;;8.08;5.25;;;;;;;17.31;36.55;100025.23;1723428;83;25709;-49
2021/04/20 12:35:01;;;;;;;6.58;3.90;;;;;;;17.24;36.60;100007.33;1671724;84;25641;-47
2021/04/20 12:37:31;;;;;;;6.37;3.50;;;;;;;17.17;35.67;99996.27;1706127;82;25558;-50
2021/04/20 12:40:03;;;;;;;6.40;3.62;;;;;;;17.15;35.39;99989.80;1707284;84;25588;-47
2021/04/20 12:42:35;;;;;;;5.50;3.52;;;;;;;17.23;34.62;99983.91;1710016;82;25575;-45
2021/04/20 12:45:16;;;;;;;5.33;3.60;;;;;;;17.42;35.06;99980.91;1704028;84;25821;-46
2021/04/20 12:47:43;;;;;;;5.97;4.05;;;;;;;17.65;34.48;99987.77;1707152;84;25627;-47
2021/04/20 12:50:14;;;;;;;5.53;4.05;;;;;;;17.89;35.15;99988.00;1717075;81;25569;-46
2021/04/20 12:52:43;;;;;;;4.87;3.80;;;;;;;18.18;34.92;99986.50;1701611;83;25622;-47
2021/04/20 12:55:17;;;;;;;5.47;3.80;;;;;;;18.50;34.53;99984.83;1720056;83;25590;-47
2021/04/20 12:57:47;;;;;;;4.20;3.67;;;;;;;18.95;34.60;99985.84;1701100;83;26689;-47
2021/04/20 13:00:23;;;;;;;4.72;3.60;;;;;;;19.57;34.05;99981.80;1699714;84;25550;-47
2021/04/20 13:06:41;;;;;;;5.47;3.35;;;;;;;20.94;32.22;99975.88;1697333;83;26378;-49
2021/04/20 13:09:10;;;;;;;5.40;3.60;;;;;;;21.76;30.73;99974.70;1694391;83;33020;-48
2021/04/20 13:12:07;;;;;;;3.92;3.40;;;;;;;22.11;29.95;99968.20;1693526;83;26055;-48
2021/04/20 13:14:39;;;;;;;6.22;4.47;;;;;;;22.33;29.67;99969.75;1696048;83;25570;-48
2021/04/20 13:17:10;;;;;;;6.78;4.03;;;;;;;22.55;29.53;99963.59;1699918;84;25584;-47
2021/04/20 13:19:40;;;;;;;6.22;3.77;;;;;;;22.73;29.26;99958.60;1699895;84;25736;-48
2021/04/20 13:22:25;;;;;;;5.80;3.62;;;;;;;22.92;28.12;99960.90;1696565;83;25567;-48
2021/04/20 13:25:15;;;;;;;5.00;3.50;;;;;;;23.00;28.08;99961.63;1695208;83;25735;-47
2021/04/20 13:28:27;;;;;;;4.20;3.20;;;;;;;23.20;27.95;99961.95;1685979;85;25623;-47
2021/04/20 13:31:39;;;;;;;4.12;3.60;;;;;;;23.49;27.16;99954.87;1689046;83;25624;-47
2021/04/20 13:34:26;;;;;;;5.58;3.30;;;;;;;23.77;27.29;99950.31;1717124;83;25629;-46
2021/04/20 13:36:54;;;;;;;5.10;3.25;;;;;;;24.10;25.85;99955.77;1717299;83;25645;-48
2021/04/20 13:39:26;;;;;;;6.05;3.50;;;;;;;24.24;25.57;99950.09;1717262;83;25911;-47
2021/04/20 13:42:02;;;;;;;4.92;3.10;;;;;;;24.38;25.51;99949.17;1716957;83;25769;-48
2021/04/20 13:44:55;;;;;;;3.72;3.33;;;;;;;24.42;25.21;99947.75;1707085;82;25629;-47
2021/04/20 13:47:28;;;;;;;5.53;3.65;;;;;;;24.43;25.35;99950.11;1732323;82;25593;-47
2021/04/20 13:50:03;;;;;;;4.20;3.83;;;;;;;24.55;25.41;99946.63;1735265;81;25578;-47
2021/04/20 13:52:52;;;;;;;4.22;3.80;;;;;;;24.50;24.88;99942.33;1733043;82;26723;-48
2021/04/20 13:55:32;;;;;;;5.20;3.55;;;;;;;24.42;24.84;99938.08;1762902;81;25674;-49
2021/04/20 13:58:08;;;;;;;6.42;4.10;;;;;;;24.32;24.56;99932.08;1733090;82;25558;-49
2021/04/20 14:00:56;;;;;;;4.33;3.77;;;;;;;24.00;24.22;99934.56;1727969;82;25640;-48
2021/04/20 14:03:28;;;;;;;5.00;3.70;;;;;;;23.61;24.17;99930.14;1700913;84;25625;-50
2021/04/20 14:06:00;;;;;;;7.62;3.62;;;;;;;23.18;24.69;99929.86;1709699;82;26733;-52
2021/04/20 14:08:30;;;;;;;4.58;3.60;;;;;;;22.82;25.16;99941.66;1685963;83;25708;-48
2021/04/20 14:10:58;;;;;;;4.40;3.05;;;;;;;22.52;25.25;99931.91;1710714;83;25610;-49
2021/04/20 14:13:43;;;;;;;6.95;3.67;;;;;;;22.25;25.40;99933.72;1730866;81;25583;-50
2021/04/20 14:16:15;;;;;;;4.58;3.95;;;;;;;21.97;25.44;99930.45;1730608;82;25641;-50
2021/04/20 14:18:44;;;;;;;7.15;4.30;;;;;;;21.65;26.00;99927.12;1730620;82;26551;-48
2021/04/20 14:21:21;;;;;;;8.70;4.55;;;;;;;21.36;27.02;99938.67;1730545;82;25651;-45
2021/04/20 14:23:54;;;;;;;4.45;3.95;;;;;;;21.08;27.53;99934.09;1730838;82;25597;-48
2021/04/20 14:26:24;;;;;;;7.42;4.47;;;;;;;20.84;28.17;99940.30;1730588;82;25662;-48
2021/04/20 14:29:07;;;;;;;5.00;4.08;;;;;;;20.63;28.56;99941.00;1730831;82;25550;-48
2021/04/20 14:31:43;;;;;;;10.03;5.10;;;;;;;20.42;28.66;99936.95;1730731;81;25914;-45
2021/04/20 14:34:18;;;;;;;4.58;4.15;;;;;;;20.28;28.97;99938.27;1730298;82;25615;-48
2021/04/20 14:36:56;;;;;;;5.85;4.47;;;;;;;20.19;29.65;99933.08;1708872;82;25604;-48
2021/04/20 14:39:23;;;;;;;5.28;4.12;;;;;;;20.09;29.75;99931.87;1730690;82;25711;-52
2021/04/20 14:41:55;;;;;;;6.92;4.20;;;;;;;19.97;29.71;99937.64;1707611;82;25562;-50
2021/04/20 14:44:33;;;;;;;6.58;4.95;;;;;;;19.83;29.52;99937.55;1730976;82;25986;-48
2021/04/20 14:47:11;;;;;;;6.47;4.40;;;;;;;19.68;29.97;99931.94;1733029;81;25590;-50
2021/04/20 14:49:44;;;;;;;6.65;4.80;;;;;;;19.55;30.07;99936.12;1718900;82;26355;-49
2021/04/20 14:52:21;;;;;;;7.28;4.80;;;;;;;19.40;30.06;99929.12;1725235;82;25799;-48
2021/04/20 14:55:18;;;;;;;6.47;4.58;;;;;;;19.23;30.18;99932.49;1724170;83;25570;-47
2021/04/20 14:58:08;;;;;;;4.75;4.15;;;;;;;19.08;30.33;99933.51;1707378;83;25733;-52
2021/04/20 15:00:50;;;;;;;6.22;4.60;;;;;;;18.87;30.54;99936.22;1724372;82;25627;-48
2021/04/20 15:03:27;;;;;;;5.67;4.85;;;;;;;18.68;30.92;99931.66;1724371;83;25642;-49
2021/04/20 15:06:29;;;;;;;4.10;3.70;;;;;;;18.52;30.82;99941.42;1724380;83;25968;-50
2021/04/20 15:09:13;;;;;;;7.10;4.08;;;;;;;18.34;30.72;99936.28;1724187;83;25558;-49
2021/04/20 15:11:55;;;;;;;5.65;3.95;;;;;;;18.20;30.99;99937.68;1724219;82;25948;-49
2021/04/20 15:14:32;;;;;;;5.30;4.03;;;;;;;18.16;31.21;99934.67;1724427;83;25523;-50
2021/04/20 15:17:10;;;;;;;6.53;4.00;;;;;;;18.17;31.54;99937.63;1723351;81;25657;-52
2021/04/20 15:19:42;;;;;;;5.08;3.95;;;;;;;18.21;31.49;99940.61;1721708;83;25618;-48
2021/04/20 15:22:16;;;;;;;5.67;4.00;;;;;;;18.23;31.74;99942.39;1716496;81;25636;-52
2021/04/20 15:24:57;;;;;;;5.08;4.58;;;;;;;18.22;31.81;99943.57;1746205;82;26839;-51
2021/04/20 15:27:38;;;;;;;9.35;5.30;;;;;;;18.21;31.83;99937.09;1744617;82;25533;-50
2021/04/20 15:30:43;;;;;;;5.90;4.72;;;;;;;18.17;32.30;99941.73;1720961;82;25609;-51
2021/04/20 15:33:52;;;;;;;8.13;4.58;;;;;;;18.13;32.47;99937.55;1725628;83;25334;-51
2021/04/20 15:36:29;;;;;;;;;;;;;;;18.08;32.56;99936.50;1728508;82;25610;-50
2021/04/20 15:39:04;;;;;;;6.85;4.62;;;;;;;18.02;32.66;99939.36;1724716;82;25722;-49
2021/04/20 15:41:48;;;;;;;4.80;4.20;;;;;;;17.96;32.69;99935.34;1725296;82;25648;-48
2021/04/20 15:44:15;;;;;;;4.60;4.00;;;;;;;17.94;32.90;99937.67;1725364;82;25578;-49
2021/04/20 15:46:48;;;;;;;6.08;4.70;;;;;;;17.89;32.94;99935.47;1726061;83;25613;-49
2021/04/20 15:49:43;;;;;;;7.78;4.92;;;;;;;17.85;32.96;99945.52;1725797;83;25563;-49
2021/04/20 15:52:19;;;;;;;5.67;4.15;;;;;;;17.78;32.81;99945.41;1719169;82;26955;-48
2021/04/20 15:54:58;;;;;;;9.60;4.78;;;;;;;17.70;33.11;99947.81;1716944;83;25535;-47
2021/04/20 15:57:31;;;;;;;6.10;4.42;;;;;;;17.61;33.52;99950.02;1717269;83;26029;-47
2021/04/20 15:59:58;;;;;;;6.40;5.12;;;;;;;17.45;33.48;99933.70;1717033;83;25638;-48
2021/04/20 16:02:30;;;;;;;5.92;4.92;;;;;;;17.31;33.84;99945.96;1709430;83;25633;-46
2021/04/20 16:05:14;;;;;;;6.50;4.80;;;;;;;17.17;34.01;99938.88;1716294;83;25795;-46
2021/04/20 16:07:48;;;;;;;7.53;5.28;;;;;;;17.05;34.33;99947.24;1697404;83;25561;-48
2021/04/20 16:10:22;;;;;;;6.30;5.00;;;;;;;16.91;34.73;99940.93;1688124;85;25633;-47
2021/04/20 16:13:11;;;;;;;6.62;5.35;;;;;;;16.81;35.06;99941.67;1688105;83;25580;-50
2021/04/20 16:15:42;;;;;;;7.70;5.40;;;;;;;16.72;35.35;99934.84;1666181;84;25581;-50
2021/04/20 16:18:13;;;;;;;6.00;5.00;;;;;;;16.65;35.66;99939.58;1701897;83;25998;-50
2021/04/20 16:20:45;;;;;;;7.17;5.40;;;;;;;16.59;36.04;99940.45;1720204;83;25644;-47
2021/04/20 16:23:33;;;;;;;5.78;4.62;;;;;;;16.51;35.96;99935.98;1720281;83;25591;-46
2021/04/20 16:26:08;;;;;;;5.97;4.83;;;;;;;16.42;36.03;99937.55;1720004;82;25551;-49
2021/04/20 16:28:36;;;;;;;8.75;5.08;;;;;;;16.32;36.14;99939.47;1719935;83;25640;-48
2021/04/20 16:31:33;;;;;;;8.98;4.80;;;;;;;16.21;36.16;99944.70;1723201;82;25709;-47
2021/04/20 16:34:08;;;;;;;10.50;5.72;;;;;;;16.08;36.27;99947.90;1749701;82;25630;-46
2021/04/20 16:36:55;;;;;;;9.28;5.72;;;;;;;15.78;37.45;99949.16;1726868;82;25665;-46
2021/04/20 16:39:57;;;;;;;8.93;6.30;;;;;;;15.51;38.25;99945.34;1739902;82;26210;-46
2021/04/20 16:42:47;;;;;;;7.25;5.62;;;;;;;15.26;39.57;99944.11;1720183;83;25600;-46
2021/04/20 16:45:21;;;;;;;10.65;5.72;;;;;;;14.97;40.76;99944.48;1718823;83;25824;-47
2021/04/20 16:48:05;;;;;;;7.08;5.85;;;;;;;14.68;41.51;99943.10;1719912;83;25588;-46
2021/04/20 16:50:37;;;;;;;9.45;6.33;;;;;;;14.47;42.07;99941.08;1720279;83;25538;-45
2021/04/20 16:53:43;;;;;;;7.25;5.85;;;;;;;14.23;43.13;99936.47;1710543;83;25565;-45
2021/04/20 16:56:30;;;;;;;8.50;5.33;;;;;;;14.01;43.03;99940.69;1709925;83;25606;-47
2021/04/20 16:59:15;;;;;;;9.65;5.95;;;;;;;13.85;43.33;99939.78;1709747;83;25793;-45
2021/04/20 17:02:05;;;;;;;13.93;5.78;;;;;;;13.68;44.45;99941.36;1712578;82;25681;-44
2021/04/20 17:04:54;;;;;;;11.60;5.72;;;;;;;13.52;44.90;99933.05;1722637;82;25676;-45
2021/04/20 17:07:36;;;;;;;10.75;6.15;;;;;;;13.36;45.98;99939.13;1720996;82;25672;-47
2021/04/20 17:10:10;;;;;;;6.30;5.58;;;;;;;13.25;45.52;99940.68;1723001;82;25723;-48
2021/04/20 17:13:04;;;;;;;12.18;6.85;;;;;;;13.16;46.00;99945.38;1719078;81;26601;-45
2021/04/20 17:16:11;;;;;;;6.72;6.05;;;;;;;13.08;47.27;99937.56;1708890;83;25599;-47
2021/04/20 17:19:15;;;;;;;10.63;6.85;;;;;;;12.95;47.03;99935.36;1709271;82;25586;-50
2021/04/20 17:22:28;;;;;;;11.68;7.20;;;;;;;12.85;48.18;99928.98;1708928;83;25599;-48
2021/04/20 17:25:34;;;;;;;9.43;6.97;;;;;;;12.75;48.69;99931.53;1708214;83;25690;-46
2021/04/20 17:28:10;;;;;;;11.30;7.28;;;;;;;12.65;49.07;99936.01;1724946;82;25716;-48
2021/04/20 17:31:06;;;;;;;10.40;7.20;;;;;;;12.56;49.32;99937.44;1732769;82;25636;-46
2021/04/20 17:34:06;;;;;;;10.18;7.62;;;;;;;12.51;48.98;99940.34;1708546;83;25650;-46
2021/04/20 17:37:08;;;;;;;10.23;7.92;;;;;;;12.48;50.01;99945.88;1720034;81;25793;-58
2021/04/20 17:40:07;;;;;;;10.70;8.70;;;;;;;12.41;50.40;99947.52;1708617;83;25720;-47
2021/04/20 17:43:13;;;;;;;11.65;8.23;;;;;;;12.33;50.84;99947.25;1710420;81;25719;-46
2021/04/20 17:46:31;;;;;;;14.87;8.23;;;;;;;12.27;50.87;99945.05;1657599;86;26323;-47
2021/04/20 17:49:20;;;;;;;12.00;9.10;;;;;;;12.21;51.28;99946.36;1656487;86;25737;-45
2021/04/20 17:52:15;;;;;;;13.25;9.28;;;;;;;12.14;51.71;99944.19;1646939;86;25594;-49
2021/04/20 17:55:07;;;;;;;14.00;9.75;;;;;;;12.07;52.10;99942.53;1663028;85;25717;-49
2021/04/20 17:57:57;;;;;;;13.22;9.13;;;;;;;11.99;52.23;99938.77;1670935;85;25871;-48
2021/04/20 18:00:44;;;;;;;12.95;9.08;;;;;;;11.91;53.03;99939.59;1671220;85;25812;-47